Homer, Pennsylvania
Current Conditions -  °F | °C
As of 2:56 PM on Thursday 23 Oct 2014 (Local Time) from KELZ Reporting Station
Overcast Overcast  
Wind Chill: 54°   Ceiling: 4500
Heat Index: 54°   Visibility: 10mi
Dew Point: 37°   Wind: 18mph
Humidity: 53%   Direction: 340°NNW
Pressure: 29.99"   Gusts: 30mph
Location:  41.7605°N, 77.9728°W
Report Text: KELZ 231856Z AUTO 34016G26KT 10SM OVC045 12/03 A2999 RMK AO2 PK WND 35028/1806 SLP162 T01220028
Loading
Personal Weather Stations






























Interactive Weather Map
Tropical Storm Tracking
New forecast layout! Learn more

10-Day Weather Forecast

Advertisements
Track Severe Weather on mobile